Impacts TAF Board
For situational awareness. Not to be used for flight planning purposes.
IDs:

KMLC - McAlester Rgnl, OK, US

Issued at 1721 UTC 21 May 2022
Updated at 2314 UTC 21 May 2022
Potential Impact None Slight Moderate High
Time<<23/00Z 23/01Z 23/02Z 23/03Z 23/04Z 23/05Z 23/06Z 23/07Z 23/08Z 23/09Z 23/10Z 23/11Z 23/12Z
Type
VIS
CIG
Cover
FltCat
WX
WDir
WSpd
WGst
WSHgt
WSDir
WSSpd
R02/20
XWnd 0 0 0 0 0 0 0 0 0 0 0 0 0
HWnd 0 0 0 0 0 0 0 0 0 0 0 0 0
Raw TAF
KMLC 211721Z 2118/2218 36012KT P6SM VCSH OVC007
  TEMPO 2118/2122 3SM -SHRA BR OVC005
  FM220200 36010KT P6SM BKN015
  FM220500 02008KT P6SM BKN050


METAR Board
Radar Display
Forecast Discussion
For situational awareness. Not to be used for flight planning purposes.